createdAt,value
2017-10-26T00:02:13.674Z,30.50
2017-10-26T00:04:48.706Z,41.00
2017-10-26T00:07:23.062Z,38.13
2017-10-26T00:09:54.899Z,38.10
2017-10-26T00:12:27.199Z,45.57
2017-10-26T00:14:57.908Z,34.20
2017-10-26T00:17:36.265Z,42.30
2017-10-26T00:20:10.479Z,37.13
2017-10-26T00:22:42.249Z,36.07
2017-10-26T00:25:13.797Z,37.70
2017-10-26T00:27:45.786Z,37.63
2017-10-26T00:30:18.999Z,38.13
2017-10-26T00:32:51.226Z,36.33
2017-10-26T00:35:23.302Z,40.77
2017-10-26T00:37:54.833Z,46.70
2017-10-26T00:40:26.689Z,43.83
2017-10-26T00:42:57.572Z,47.70
2017-10-26T00:45:28.562Z,47.87
2017-10-26T00:48:00.840Z,53.93
2017-10-26T00:50:33.409Z,47.03
2017-10-26T00:53:05.030Z,49.00
2017-10-26T00:55:37.541Z,44.53
2017-10-26T00:58:10.325Z,51.13
2017-10-26T01:00:44.020Z,45.60
2017-10-26T01:03:17.362Z,52.10
2017-10-26T01:05:48.607Z,45.90
2017-10-26T01:08:21.866Z,45.47
2017-10-26T01:10:54.615Z,50.37
2017-10-26T01:13:25.958Z,50.30
2017-10-26T01:15:59.725Z,42.10
2017-10-26T01:18:32.358Z,39.33
2017-10-26T01:21:04.159Z,44.93
2017-10-26T01:23:35.271Z,43.77
2017-10-26T01:26:07.286Z,44.40
2017-10-26T01:28:40.641Z,51.80
2017-10-26T01:31:14.094Z,48.93
2017-10-26T01:33:48.125Z,44.33
2017-10-26T01:36:18.826Z,48.20
2017-10-26T01:38:50.738Z,51.37
2017-10-26T01:41:23.205Z,41.17
2017-10-26T01:43:55.902Z,43.47
2017-10-26T01:46:28.298Z,41.83
2017-10-26T01:49:00.296Z,35.50
2017-10-26T01:51:33.306Z,43.47
2017-10-26T01:54:04.946Z,50.40
2017-10-26T01:56:36.355Z,46.03
2017-10-26T01:59:08.161Z,51.77
2017-10-26T02:01:41.258Z,47.27
2017-10-26T02:04:13.182Z,37.00
2017-10-26T02:06:45.314Z,36.20
2017-10-26T02:09:16.735Z,35.20
2017-10-26T02:11:48.781Z,37.97
2017-10-26T02:14:21.448Z,36.27
2017-10-26T02:16:53.277Z,33.13
2017-10-26T02:19:24.174Z,45.10
2017-10-26T02:21:55.338Z,43.33
2017-10-26T02:24:26.897Z,40.27
2017-10-26T02:26:58.410Z,44.53
2017-10-26T02:31:38.589Z,36.50
2017-10-26T02:34:11.742Z,36.10
2017-10-26T02:36:44.658Z,43.17
2017-10-26T02:39:17.021Z,49.27
2017-10-26T02:41:48.488Z,47.00
2017-10-26T02:44:20.373Z,48.63
2017-10-26T02:46:51.423Z,46.77
2017-10-26T02:49:23.167Z,53.03
2017-10-26T02:51:56.374Z,55.63
2017-10-26T02:54:27.793Z,65.30
2017-10-26T02:56:58.856Z,66.30
2017-10-26T02:59:31.731Z,56.50
2017-10-26T07:05:51.191Z,58.03
2017-10-26T07:08:22.335Z,50.10
2017-10-26T07:18:06.069Z,58.03
2017-10-26T08:25:43.331Z,57.43
2017-10-26T08:35:20.573Z,57.47
2017-10-26T08:38:29.509Z,49.93
2017-10-26T08:41:38.371Z,56.40
2017-10-26T08:44:48.771Z,45.27
2017-10-26T08:48:00.287Z,52.23
2017-10-26T08:51:11.226Z,46.53
2017-10-26T08:54:21.396Z,43.20
2017-10-26T08:57:32.458Z,51.77
2017-10-26T09:00:42.420Z,41.90
2017-10-26T09:03:53.799Z,41.27
2017-10-26T09:07:02.927Z,43.63
2017-10-26T09:10:13.930Z,45.50
2017-10-26T09:13:24.269Z,45.93
2017-10-26T09:16:33.961Z,45.10
2017-10-26T09:19:46.223Z,42.53
2017-10-26T09:22:57.165Z,43.10
2017-10-26T09:26:07.687Z,42.50
2017-10-26T09:29:21.392Z,47.07
2017-10-26T09:32:34.468Z,41.43
2017-10-26T09:35:44.356Z,47.80
2017-10-26T09:38:56.148Z,41.90
2017-10-26T09:42:07.150Z,38.57
2017-10-26T09:45:20.657Z,34.17
2017-10-26T09:48:31.660Z,41.30
2017-10-26T09:51:40.574Z,36.77
2017-10-26T09:54:53.629Z,43.23
2017-10-26T09:58:04.526Z,35.53
2017-10-26T10:00:45.133Z,34.53
2017-10-26T10:03:18.259Z,33.57
2017-10-26T10:05:50.310Z,43.63
2017-10-26T10:08:22.034Z,46.57
2017-10-26T10:10:55.088Z,34.30
2017-10-26T10:13:26.099Z,38.50
2017-10-26T10:15:59.992Z,41.37
2017-10-26T10:18:31.879Z,35.40
2017-10-26T10:21:04.374Z,38.43
2017-10-26T10:23:35.464Z,29.60
2017-10-26T10:26:07.375Z,30.43
2017-10-26T10:28:56.766Z,33.37
2017-10-26T10:31:31.035Z,33.33
2017-10-26T10:34:03.861Z,35.80
2017-10-26T10:36:37.213Z,32.90
2017-10-26T10:39:10.500Z,28.13
2017-10-26T10:41:42.947Z,36.57
2017-10-26T10:44:14.631Z,31.13
2017-10-26T10:46:45.895Z,34.93
2017-10-26T10:49:17.061Z,34.27
2017-10-26T10:51:48.420Z,27.77
2017-10-26T10:54:20.091Z,32.73
2017-10-26T10:56:51.337Z,39.53
2017-10-26T10:59:28.199Z,31.43
2017-10-26T11:01:59.450Z,28.17
2017-10-26T11:04:33.904Z,27.87
2017-10-26T11:07:06.225Z,34.63
2017-10-26T11:09:38.348Z,32.80
2017-10-26T11:12:11.851Z,31.77
2017-10-26T11:14:42.998Z,27.10
2017-10-26T11:17:17.058Z,25.53
2017-10-26T11:20:16.195Z,33.07
2017-10-26T11:22:47.713Z,30.10
2017-10-26T11:25:20.549Z,30.00
2017-10-26T11:27:56.004Z,20.50
2017-10-26T11:30:27.993Z,22.90
2017-10-26T11:33:01.852Z,23.00
2017-10-26T11:35:35.291Z,24.27
2017-10-26T11:38:06.378Z,29.60
2017-10-26T11:40:40.438Z,21.70
2017-10-26T11:43:12.475Z,30.67
2017-10-26T11:45:43.623Z,28.47
2017-10-26T11:48:18.473Z,27.77
2017-10-26T11:50:49.696Z,26.17
2017-10-26T11:53:20.953Z,22.07
2017-10-26T11:55:52.902Z,27.40
2017-10-26T11:58:23.854Z,27.07
2017-10-26T12:00:55.158Z,28.80
2017-10-26T12:03:26.844Z,22.97
2017-10-26T12:05:59.220Z,31.03
2017-10-26T12:08:31.235Z,24.83
2017-10-26T12:11:05.074Z,27.17
2017-10-26T12:13:38.393Z,29.40
2017-10-26T12:16:09.343Z,24.00
2017-10-26T12:18:41.430Z,28.13
2017-10-26T12:21:13.001Z,23.10
2017-10-26T12:23:44.890Z,19.07
2017-10-26T12:26:16.950Z,26.50
2017-10-26T12:28:48.530Z,22.30
2017-10-26T12:31:22.345Z,20.00
2017-10-26T12:33:54.087Z,26.53
2017-10-26T12:36:27.022Z,25.43
2017-10-26T12:39:06.363Z,22.20
2017-10-26T12:41:40.788Z,28.60
2017-10-26T12:44:15.087Z,23.37
2017-10-26T12:46:49.167Z,21.60
2017-10-26T12:49:21.103Z,19.53
2017-10-26T12:51:55.570Z,21.47
2017-10-26T12:54:27.281Z,20.20
2017-10-26T12:56:58.343Z,24.53
2017-10-26T12:59:32.138Z,19.30
2017-10-26T13:02:04.116Z,18.17
2017-10-26T13:04:36.020Z,20.50
2017-10-26T13:07:10.376Z,20.23
2017-10-26T13:09:43.031Z,21.47
2017-10-26T13:12:16.024Z,18.90
2017-10-26T13:14:47.605Z,17.60
2017-10-26T13:17:19.985Z,22.57
2017-10-26T13:19:51.679Z,22.33
2017-10-26T13:22:23.937Z,20.47
2017-10-26T13:24:57.870Z,20.27
2017-10-26T13:27:32.331Z,20.90
2017-10-26T13:30:03.447Z,16.43
2017-10-26T13:32:42.068Z,21.13
2017-10-26T13:35:15.135Z,21.30
2017-10-26T13:37:47.405Z,19.63
2017-10-26T13:40:19.451Z,17.30
2017-10-26T13:42:56.319Z,21.57
2017-10-26T13:45:29.432Z,18.60
2017-10-26T13:48:00.600Z,13.50
2017-10-26T13:50:33.633Z,22.20
2017-10-26T13:53:05.271Z,16.73
2017-10-26T13:55:39.757Z,23.90
2017-10-26T13:58:12.936Z,19.63
2017-10-26T14:00:48.373Z,20.60
2017-10-26T14:03:23.232Z,16.77
2017-10-26T14:05:56.198Z,15.27
2017-10-26T14:08:27.220Z,14.63
2017-10-26T14:10:59.177Z,16.30
2017-10-26T14:13:33.309Z,16.20
2017-10-26T14:16:05.360Z,15.20
2017-10-26T14:18:37.917Z,20.70
2017-10-26T14:21:11.946Z,18.97
2017-10-26T14:23:43.795Z,17.77
2017-10-26T14:26:17.438Z,16.47
2017-10-26T14:28:52.538Z,15.90
2017-10-26T14:31:28.879Z,25.30
2017-10-26T14:34:07.328Z,17.10
2017-10-26T14:36:40.007Z,18.77
2017-10-26T14:39:18.368Z,16.10
2017-10-26T14:41:50.754Z,18.80
2017-10-26T14:44:21.629Z,13.67
2017-10-26T14:46:53.359Z,16.53
2017-10-26T14:49:27.564Z,16.73
2017-10-26T14:51:58.794Z,15.70
2017-10-26T14:54:33.292Z,20.30
2017-10-26T14:57:04.952Z,17.47
2017-10-26T14:59:37.490Z,11.23
2017-10-26T15:02:09.953Z,16.60
2017-10-26T15:04:43.853Z,16.80
2017-10-26T15:07:24.299Z,16.90
2017-10-26T15:10:03.315Z,16.63
2017-10-26T15:12:38.553Z,20.37
2017-10-26T15:15:11.878Z,18.50
2017-10-26T15:17:50.160Z,17.67
2017-10-26T15:20:22.481Z,21.30
2017-10-26T15:22:56.815Z,15.43
2017-10-26T15:25:33.993Z,13.73
2017-10-26T15:28:07.454Z,25.00
2017-10-26T15:30:42.921Z,15.90
2017-10-26T15:33:15.884Z,16.23
2017-10-26T15:35:51.373Z,16.93
2017-10-26T15:38:25.113Z,19.90
2017-10-26T15:40:57.548Z,16.63
2017-10-26T15:43:30.676Z,19.57
2017-10-26T15:46:03.433Z,15.90
2017-10-26T15:48:40.587Z,22.73
2017-10-26T15:51:13.415Z,18.90
2017-10-26T15:53:46.035Z,22.43
2017-10-26T15:56:16.849Z,19.10
2017-10-26T15:58:47.909Z,12.90
2017-10-26T16:01:19.162Z,18.40
2017-10-26T16:03:51.828Z,13.23
2017-10-26T16:06:22.876Z,12.53
2017-10-26T16:08:53.821Z,17.50
2017-10-26T16:11:24.852Z,20.23
2017-10-26T16:13:55.950Z,13.63
2017-10-26T16:16:29.484Z,17.87
2017-10-26T16:19:00.833Z,11.77
2017-10-26T16:21:32.561Z,12.03
2017-10-26T16:24:03.545Z,13.43
2017-10-26T16:26:35.637Z,14.30
2017-10-26T16:29:07.805Z,9.37
2017-10-26T16:31:38.759Z,16.03
2017-10-26T16:34:12.122Z,13.70
2017-10-26T16:36:47.937Z,18.17
2017-10-26T16:39:20.114Z,19.20
2017-10-26T16:41:55.494Z,19.57
2017-10-26T16:44:32.556Z,23.80
2017-10-26T16:47:04.886Z,12.70
2017-10-26T16:49:40.292Z,14.20
2017-10-26T16:52:13.267Z,21.73
2017-10-26T16:54:45.692Z,25.53
2017-10-26T16:57:22.759Z,16.93
2017-10-26T16:59:59.468Z,21.17
2017-10-26T17:02:32.019Z,23.20
2017-10-26T17:05:03.315Z,12.70
2017-10-26T17:07:34.668Z,13.47
2017-10-26T17:10:06.311Z,13.50
2017-10-26T17:12:39.565Z,13.63
2017-10-26T17:15:11.324Z,12.93
2017-10-26T17:17:43.556Z,11.53
2017-10-26T17:20:20.476Z,18.97
2017-10-26T17:22:51.709Z,16.00
2017-10-26T17:25:23.154Z,16.00
2017-10-26T17:27:55.750Z,15.23
2017-10-26T17:30:26.955Z,17.70
2017-10-26T17:32:59.078Z,19.07
2017-10-26T17:35:30.677Z,14.37
2017-10-26T17:38:02.683Z,15.10
2017-10-26T17:40:34.040Z,20.60
2017-10-26T17:43:06.019Z,17.10
2017-10-26T17:45:38.805Z,24.80
2017-10-26T17:48:09.672Z,17.57
2017-10-26T17:50:42.424Z,19.83
2017-10-26T17:53:13.881Z,19.77
2017-10-26T17:55:44.722Z,13.90
2017-10-26T17:58:15.935Z,19.33
2017-10-26T18:00:46.762Z,19.43
2017-10-26T18:03:17.904Z,19.30
2017-10-26T18:05:48.740Z,15.73
2017-10-26T18:08:20.296Z,18.60
2017-10-26T18:10:52.911Z,15.03
2017-10-26T18:13:24.290Z,11.67
2017-10-26T18:15:55.939Z,12.70
2017-10-26T18:18:31.947Z,22.60
2017-10-26T18:21:03.169Z,11.80
2017-10-26T18:23:34.376Z,15.10
2017-10-26T18:26:05.489Z,9.80
2017-10-26T18:28:36.360Z,11.87
2017-10-26T18:31:07.436Z,14.63
2017-10-26T18:33:40.000Z,11.37
2017-10-26T18:36:11.954Z,11.50
2017-10-26T18:38:46.718Z,15.60
2017-10-26T18:41:18.007Z,12.27
2017-10-26T18:43:48.946Z,15.53
2017-10-26T18:46:20.597Z,11.80
2017-10-26T18:48:51.944Z,10.73
2017-10-26T18:51:22.781Z,10.30
2017-10-26T18:53:53.764Z,14.30
2017-10-26T18:56:25.594Z,13.33
2017-10-26T18:58:56.375Z,13.00
2017-10-26T19:01:27.397Z,12.67
2017-10-26T19:03:58.364Z,8.40
2017-10-26T19:06:29.724Z,8.50
2017-10-26T19:09:00.776Z,8.37
2017-10-26T19:11:31.663Z,9.23
2017-10-26T19:14:03.829Z,8.33
2017-10-26T19:16:35.743Z,9.07
2017-10-26T19:19:06.635Z,7.07
2017-10-26T19:21:39.103Z,7.07
2017-10-26T19:24:10.090Z,8.40
2017-10-26T19:26:41.370Z,9.57
2017-10-26T19:29:12.398Z,5.20
2017-10-26T19:31:44.886Z,3.83
2017-10-26T19:34:16.835Z,5.87
2017-10-26T19:36:47.896Z,11.10
2017-10-26T19:39:18.789Z,8.30
2017-10-26T19:41:49.891Z,10.00
2017-10-26T19:44:26.050Z,10.07
2017-10-26T19:46:57.251Z,8.50
2017-10-26T19:49:28.118Z,6.87
2017-10-26T19:52:00.265Z,5.47
2017-10-26T19:54:32.149Z,5.10
2017-10-26T19:57:03.914Z,5.13
2017-10-26T19:59:35.114Z,6.10
2017-10-26T20:02:06.607Z,9.10
2017-10-26T20:04:38.298Z,6.43
2017-10-26T20:07:09.207Z,3.03
2017-10-26T20:09:41.412Z,5.73
2017-10-26T20:12:13.036Z,6.83
2017-10-26T20:14:45.300Z,6.47
2017-10-26T20:17:16.703Z,3.97
2017-10-26T20:19:49.040Z,5.03
2017-10-26T20:22:20.446Z,5.50
2017-10-26T20:24:52.589Z,7.67
2017-10-26T20:27:24.082Z,6.10
2017-10-26T20:29:57.371Z,4.17
2017-10-26T20:32:28.313Z,5.90
2017-10-26T20:34:59.753Z,3.20
2017-10-26T20:37:31.523Z,5.23
2017-10-26T20:40:03.406Z,8.80
2017-10-26T20:42:34.596Z,8.60
2017-10-26T20:45:05.508Z,3.10
2017-10-26T20:47:36.748Z,9.07
2017-10-26T20:50:12.647Z,6.00
2017-10-26T20:54:51.957Z,8.07
2017-10-26T20:59:34.608Z,6.30
2017-10-26T21:03:12.853Z,6.20
2017-10-26T21:06:47.868Z,6.20
2017-10-26T21:09:24.984Z,5.03
2017-10-26T21:14:03.793Z,4.30
2017-10-26T21:16:35.925Z,4.90
2017-10-26T21:19:06.849Z,2.93
2017-10-26T21:21:39.277Z,9.70
2017-10-26T21:24:11.772Z,4.20
2017-10-26T21:26:46.530Z,7.67
2017-10-26T21:29:21.371Z,8.07
2017-10-26T21:31:56.113Z,5.00
2017-10-26T21:34:30.851Z,3.40
2017-10-26T21:37:05.129Z,6.57
2017-10-26T21:39:37.074Z,5.53
2017-10-26T21:42:08.985Z,7.93
2017-10-26T21:44:41.044Z,6.67
2017-10-26T21:47:12.730Z,5.10
2017-10-26T21:49:44.767Z,3.73
2017-10-26T21:52:17.515Z,7.73
2017-10-26T21:54:48.473Z,5.17
2017-10-26T21:57:21.253Z,10.50
2017-10-26T21:59:52.543Z,6.27
2017-10-26T22:02:23.525Z,8.77
2017-10-26T22:04:54.878Z,4.40
2017-10-26T22:07:26.404Z,9.20
2017-10-26T22:09:57.934Z,6.43
2017-10-26T22:12:29.029Z,6.90
2017-10-26T22:15:02.055Z,5.30
2017-10-26T22:17:33.307Z,3.50
2017-10-26T22:20:04.918Z,4.00
2017-10-26T22:22:37.942Z,3.47
2017-10-26T22:25:12.936Z,6.33
2017-10-26T22:27:48.534Z,5.00
2017-10-26T22:30:22.000Z,3.33
2017-10-26T22:32:55.331Z,3.70
2017-10-26T22:35:27.331Z,4.73
2017-10-26T22:37:59.346Z,10.07
2017-10-26T22:40:30.360Z,6.37
2017-10-26T22:43:01.643Z,8.50
2017-10-26T22:45:39.104Z,6.80
2017-10-26T22:48:10.623Z,7.43
2017-10-26T22:50:43.292Z,12.03
2017-10-26T22:53:17.821Z,5.37
2017-10-26T22:55:53.180Z,5.17
2017-10-26T22:58:28.071Z,15.90
2017-10-26T23:01:01.583Z,5.37
2017-10-26T23:03:36.054Z,5.03
2017-10-26T23:06:18.519Z,10.60
2017-10-26T23:08:54.064Z,7.77
2017-10-26T23:11:29.624Z,5.57
2017-10-26T23:14:05.086Z,17.53
2017-10-26T23:16:38.710Z,6.37
2017-10-26T23:19:11.889Z,11.23
2017-10-26T23:21:43.273Z,7.87
2017-10-26T23:24:15.521Z,10.40
2017-10-26T23:26:49.588Z,8.73
2017-10-26T23:29:21.392Z,7.93
2017-10-26T23:31:52.955Z,6.77
2017-10-26T23:34:25.607Z,6.37
2017-10-26T23:36:57.077Z,8.17
2017-10-26T23:39:28.945Z,6.70
2017-10-26T23:41:59.995Z,9.23
2017-10-26T23:44:31.527Z,11.43
2017-10-26T23:47:04.059Z,10.03
2017-10-26T23:49:36.160Z,8.70
2017-10-26T23:52:08.208Z,10.50
2017-10-26T23:54:39.957Z,11.13
2017-10-26T23:57:12.734Z,16.40
2017-10-26T23:59:45.554Z,10.83
